Conesus, New York
Current Conditions -  °F | °C
As of 3:54 PM on Sunday 23 Nov 2014 (Local Time) from KDSV Reporting Station
Broken Clouds Broken Clouds  
Wind Chill: 53°   Ceiling: 10000
Heat Index: 53°   Visibility: 10mi
Dew Point: 39°   Wind: 8mph
Humidity: 59%   Direction: 140°SE
Pressure: 29.94"   Gusts: NA
Location:  42.72°N, 77.68°W
Report Text: KDSV 232054Z AUTO 14007KT 10SM BKN100 12/04 A2994 RMK AO2 SLP151 T01170039 56025
Loading
Personal Weather Stations






























Interactive Weather Map New forecast layout! Learn more

10-Day Weather Forecast

Advertisements
Track Severe Weather on mobile